createdAt,value
2022-09-03T00:01:03.568Z,100536.02
2022-09-03T00:04:15.608Z,100536.75
2022-09-03T00:07:30.664Z,100537.30
2022-09-03T00:11:14.602Z,100545.13
2022-09-03T00:14:33.880Z,100547.66
2022-09-03T00:17:46.423Z,100546.28
2022-09-03T00:21:05.837Z,100548.97
2022-09-03T00:24:03.826Z,100550.58
2022-09-03T00:27:13.600Z,100546.44
2022-09-03T00:30:23.017Z,100543.67
2022-09-03T00:33:32.566Z,100545.47
2022-09-03T00:36:59.136Z,100544.31
2022-09-03T00:40:04.328Z,100551.20
2022-09-03T00:43:18.170Z,100544.82
2022-09-03T00:46:50.049Z,100546.13
2022-09-03T00:50:15.646Z,100547.90
2022-09-03T00:53:45.954Z,100554.08
2022-09-03T00:57:19.691Z,100559.53
2022-09-03T01:00:31.942Z,100559.73
2022-09-03T01:03:55.833Z,100558.38
2022-09-03T01:07:30.391Z,100568.48
2022-09-03T01:10:46.538Z,100560.19
2022-09-03T01:14:09.204Z,100569.75
2022-09-03T01:17:45.790Z,100562.72
2022-09-03T01:21:05.165Z,100558.80
2022-09-03T01:24:36.113Z,100546.28
2022-09-03T01:28:22.547Z,100546.94
2022-09-03T01:31:54.748Z,100549.55
2022-09-03T01:35:31.467Z,100555.92
2022-09-03T01:38:50.628Z,100543.55
2022-09-03T01:42:24.020Z,100545.28
2022-09-03T01:45:54.541Z,100551.57
2022-09-03T01:49:08.663Z,100543.05
2022-09-03T01:52:31.657Z,100549.47
2022-09-03T01:56:10.034Z,100544.14
2022-09-03T01:59:28.850Z,100551.48
2022-09-03T02:02:43.338Z,100544.63
2022-09-03T02:05:50.739Z,100535.68
2022-09-03T02:08:56.870Z,100533.14
2022-09-03T02:12:06.194Z,100546.41
2022-09-03T02:15:12.385Z,100540.02
2022-09-03T02:18:19.755Z,100543.67
2022-09-03T02:21:24.452Z,100542.97
2022-09-03T02:24:29.652Z,100540.73
2022-09-03T02:27:35.975Z,100536.94
2022-09-03T02:30:42.362Z,100549.66
2022-09-03T02:33:50.876Z,100536.84
2022-09-03T02:36:59.181Z,100535.89
2022-09-03T02:40:04.622Z,100537.16
2022-09-03T02:43:09.714Z,100529.42
2022-09-03T02:46:19.981Z,100544.73
2022-09-03T02:49:26.531Z,100540.02
2022-09-03T02:52:32.961Z,100544.05
2022-09-03T02:55:37.981Z,100550.26
2022-09-03T02:58:43.542Z,100551.72
2022-09-03T03:01:48.755Z,100557.02
2022-09-03T03:04:54.778Z,100549.82
2022-09-03T03:08:00.442Z,100554.48
2022-09-03T03:11:07.867Z,100557.56
2022-09-03T03:14:13.801Z,100564.23
2022-09-03T03:17:19.644Z,100564.33
2022-09-03T03:20:25.001Z,100558.80
2022-09-03T03:23:30.491Z,100560.03
2022-09-03T03:26:35.853Z,100559.33
2022-09-03T03:29:41.295Z,100558.31
2022-09-03T03:32:46.853Z,100558.01
2022-09-03T03:35:52.419Z,100557.25
2022-09-03T03:38:58.877Z,100561.09
2022-09-03T03:42:04.918Z,100569.29
2022-09-03T03:45:10.026Z,100565.35
2022-09-03T03:48:15.021Z,100567.88
2022-09-03T03:51:22.158Z,100577.69
2022-09-03T03:54:26.959Z,100575.45
2022-09-03T03:57:32.860Z,100579.48
2022-09-03T04:00:38.128Z,100584.45
2022-09-03T04:03:43.683Z,100593.14
2022-09-03T04:06:50.969Z,100582.73
2022-09-03T04:09:57.015Z,100574.09
2022-09-03T04:13:03.084Z,100586.63
2022-09-03T04:16:09.440Z,100579.63
2022-09-03T04:19:09.235Z,100581.68
2022-09-03T04:22:14.366Z,100583.55
2022-09-03T04:25:20.525Z,100584.39
2022-09-03T04:28:26.397Z,100588.07
2022-09-03T04:31:34.584Z,100588.61
2022-09-03T04:34:40.433Z,100585.48
2022-09-03T04:37:46.930Z,100585.14
2022-09-03T04:40:53.726Z,100590.42
2022-09-03T04:43:59.408Z,100577.62
2022-09-03T04:47:05.671Z,100583.88
2022-09-03T04:50:10.626Z,100593.07
2022-09-03T04:53:19.965Z,100605.86
2022-09-03T04:56:38.108Z,100612.08
2022-09-03T04:59:44.474Z,100603.76
2022-09-03T05:02:49.288Z,100596.61
2022-09-03T05:05:54.626Z,100603.33
2022-09-03T05:09:04.977Z,100594.35
2022-09-03T05:12:09.737Z,100595.98
2022-09-03T05:15:15.005Z,100598.72
2022-09-03T05:18:13.689Z,100602.00
2022-09-03T05:21:24.909Z,100589.02
2022-09-03T05:24:31.607Z,100577.47
2022-09-03T05:27:36.768Z,100563.39
2022-09-03T05:30:41.467Z,100556.63
2022-09-03T05:33:51.133Z,100555.18
2022-09-03T05:36:56.692Z,100561.38
2022-09-03T05:40:03.298Z,100555.78
2022-09-03T05:43:12.270Z,100569.56
2022-09-03T05:46:19.986Z,100569.72
2022-09-03T05:49:25.164Z,100573.28
2022-09-03T05:52:30.452Z,100568.70
2022-09-03T05:55:36.294Z,100563.75
2022-09-03T05:58:48.571Z,100573.70
2022-09-03T06:02:00.111Z,100562.72
2022-09-03T06:05:05.036Z,100562.70
2022-09-03T06:08:10.062Z,100551.05
2022-09-03T06:11:18.298Z,100548.82
2022-09-03T06:14:26.602Z,100556.36
2022-09-03T06:17:33.124Z,100565.59
2022-09-03T06:20:39.581Z,100557.55
2022-09-03T06:23:46.515Z,100551.75
2022-09-03T06:26:53.792Z,100538.77
2022-09-03T06:29:59.084Z,100534.31
2022-09-03T06:33:06.473Z,100521.33
2022-09-03T06:36:13.923Z,100539.38
2022-09-03T06:39:19.517Z,100527.91
2022-09-03T06:42:24.686Z,100530.28
2022-09-03T06:45:29.170Z,100519.47
2022-09-03T06:48:34.006Z,100511.42
2022-09-03T06:51:41.190Z,100506.96
2022-09-03T06:54:47.298Z,100502.94
2022-09-03T06:57:52.923Z,100509.71
2022-09-03T07:01:00.813Z,100512.59
2022-09-03T07:04:09.464Z,100510.34
2022-09-03T07:07:17.998Z,100508.11
2022-09-03T07:10:25.336Z,100506.17
2022-09-03T07:13:31.838Z,100511.28
2022-09-03T07:16:39.860Z,100502.65
2022-09-03T07:19:46.382Z,100513.12
2022-09-03T07:22:52.948Z,100497.98
2022-09-03T07:25:58.859Z,100479.95
2022-09-03T07:29:03.808Z,100491.41
2022-09-03T07:32:08.614Z,100471.75
2022-09-03T07:35:15.389Z,100471.66
2022-09-03T07:38:20.861Z,100471.32
2022-09-03T07:41:28.855Z,100465.90
2022-09-03T07:44:35.608Z,100468.73
2022-09-03T07:47:41.489Z,100466.50
2022-09-03T07:50:47.000Z,100467.77
2022-09-03T07:53:45.994Z,100451.79
2022-09-03T07:56:53.046Z,100450.39
2022-09-03T07:59:57.650Z,100449.63
2022-09-03T08:03:07.632Z,100443.28
2022-09-03T08:06:17.575Z,100447.52
2022-09-03T08:09:26.184Z,100425.77
2022-09-03T08:12:30.949Z,100426.05
2022-09-03T08:15:36.252Z,100417.86
2022-09-03T08:18:43.069Z,100422.88
2022-09-03T08:21:51.858Z,100420.44
2022-09-03T08:24:57.080Z,100412.64
2022-09-03T08:28:02.589Z,100402.61
2022-09-03T08:31:08.486Z,100399.03
2022-09-03T08:34:15.324Z,100397.65
2022-09-03T08:37:20.256Z,100395.73
2022-09-03T08:40:26.797Z,100396.07
2022-09-03T08:43:32.502Z,100394.80
2022-09-03T08:46:30.366Z,100390.21
2022-09-03T08:50:02.922Z,100380.41
2022-09-03T08:53:18.977Z,100392.48
2022-09-03T08:56:28.104Z,100384.36
2022-09-03T08:59:33.200Z,100385.80
2022-09-03T09:02:52.851Z,100374.30
2022-09-03T09:06:30.888Z,100376.27
2022-09-03T09:09:53.586Z,100376.00
2022-09-03T09:13:35.684Z,100372.03
2022-09-03T09:16:49.822Z,100373.75
2022-09-03T09:20:18.400Z,100372.33
2022-09-03T09:23:29.919Z,100360.55
2022-09-03T09:26:36.431Z,100363.36
2022-09-03T09:29:48.036Z,100350.19
2022-09-03T09:32:54.468Z,100351.04
2022-09-03T09:36:00.038Z,100360.28
2022-09-03T09:39:05.736Z,100359.98
2022-09-03T09:42:18.215Z,100357.21
2022-09-03T09:45:26.700Z,100364.49
2022-09-03T09:48:40.892Z,100356.02
2022-09-03T09:51:47.276Z,100358.80
2022-09-03T09:54:56.004Z,100354.03
2022-09-03T09:58:00.916Z,100357.97
2022-09-03T10:01:21.757Z,100356.59
2022-09-03T10:04:37.270Z,100339.76
2022-09-03T10:07:44.358Z,100349.57
2022-09-03T10:10:52.749Z,100345.33
2022-09-03T10:13:53.883Z,100345.34
2022-09-03T10:17:02.980Z,100342.25
2022-09-03T10:20:34.690Z,100329.64
2022-09-03T10:23:41.365Z,100323.44
2022-09-03T10:26:47.006Z,100328.13
2022-09-03T10:29:53.954Z,100324.38
2022-09-03T10:33:25.990Z,100318.25
2022-09-03T10:36:40.016Z,100318.73
2022-09-03T10:40:28.334Z,100312.73
2022-09-03T10:43:54.360Z,100304.38
2022-09-03T10:47:38.913Z,100307.52
2022-09-03T10:51:01.321Z,100315.35
2022-09-03T10:54:36.621Z,100304.45
2022-09-03T10:57:55.865Z,100300.20
2022-09-03T11:01:10.440Z,100278.66
2022-09-03T11:04:40.911Z,100303.49
2022-09-03T11:07:55.870Z,100285.28
2022-09-03T11:11:04.701Z,100283.27
2022-09-03T11:14:25.429Z,100273.16
2022-09-03T11:17:34.533Z,100279.36
2022-09-03T11:20:40.221Z,100265.34
2022-09-03T11:23:47.745Z,100267.81
2022-09-03T11:26:54.422Z,100270.13
2022-09-03T11:30:22.690Z,100266.48
2022-09-03T11:33:27.945Z,100265.05
2022-09-03T11:36:48.171Z,100277.72
2022-09-03T11:39:49.412Z,100264.25
2022-09-03T11:42:56.454Z,100266.52
2022-09-03T11:46:02.837Z,100273.58
2022-09-03T11:49:11.479Z,100261.27
2022-09-03T11:52:19.322Z,100254.02
2022-09-03T11:55:23.875Z,100256.31
2022-09-03T11:58:36.255Z,100255.77
2022-09-03T12:01:33.547Z,100260.30
2022-09-03T12:04:59.276Z,100244.31
2022-09-03T12:08:45.568Z,100246.57
2022-09-03T12:12:15.075Z,100256.94
2022-09-03T12:15:25.630Z,100267.24
2022-09-03T12:18:40.964Z,100257.17
2022-09-03T12:21:47.721Z,100251.58
2022-09-03T12:24:55.476Z,100259.14
2022-09-03T12:28:00.832Z,100254.94
2022-09-03T12:31:08.247Z,100266.73
2022-09-03T12:34:26.911Z,100258.33
2022-09-03T12:43:53.804Z,100230.01
2022-09-03T12:50:10.986Z,100221.56
2022-09-03T12:53:17.122Z,100220.82
2022-09-03T12:56:23.379Z,100218.34
2022-09-03T12:59:32.028Z,100214.44
2022-09-03T13:02:53.059Z,100225.11
2022-09-03T13:06:02.251Z,100207.99
2022-09-03T13:09:19.688Z,100210.25
2022-09-03T13:12:52.988Z,100210.74
2022-09-03T13:15:55.989Z,100208.85
2022-09-03T13:19:22.509Z,100207.14
2022-09-03T13:22:57.971Z,100216.96
2022-09-03T13:26:17.472Z,100210.52
2022-09-03T13:29:55.370Z,100207.75
2022-09-03T13:33:29.149Z,100205.77
2022-09-03T13:36:35.334Z,100201.84
2022-09-03T13:39:44.063Z,100210.25
2022-09-03T13:42:53.496Z,100205.23
2022-09-03T13:46:04.204Z,100205.52
2022-09-03T13:49:54.604Z,100206.08
2022-09-03T13:53:04.475Z,100207.21
2022-09-03T13:56:17.220Z,100205.82
2022-09-03T13:59:52.266Z,100204.12
2022-09-03T14:03:28.592Z,100204.39
2022-09-03T14:06:57.308Z,100200.72
2022-09-03T14:10:13.057Z,100195.95
2022-09-03T14:13:37.156Z,100201.83
2022-09-03T14:16:56.666Z,100187.25
2022-09-03T14:20:10.715Z,100180.26
2022-09-03T14:23:36.489Z,100190.88
2022-09-03T14:26:47.445Z,100184.83
2022-09-03T14:29:57.326Z,100180.38
2022-09-03T14:33:32.121Z,100176.44
2022-09-03T14:37:11.412Z,100177.27
2022-09-03T14:40:42.635Z,100179.25
2022-09-03T14:44:18.693Z,100174.33
2022-09-03T14:48:20.240Z,100156.41
2022-09-03T14:51:32.812Z,100145.97
2022-09-03T14:55:12.535Z,100145.06
2022-09-03T14:58:35.006Z,100141.41
2022-09-03T15:01:46.230Z,100140.59
2022-09-03T15:05:12.966Z,100135.56
2022-09-03T15:08:35.483Z,100138.33
2022-09-03T15:11:45.055Z,100130.52
2022-09-03T15:14:56.154Z,100138.94
2022-09-03T15:18:26.685Z,100140.85
2022-09-03T15:21:55.644Z,100131.57
2022-09-03T15:25:29.637Z,100155.40
2022-09-03T15:28:54.108Z,100153.16
2022-09-03T15:32:17.097Z,100153.96
2022-09-03T15:35:40.049Z,100152.00
2022-09-03T15:38:55.851Z,100155.62
2022-09-03T15:42:06.880Z,100173.44
2022-09-03T15:45:20.456Z,100175.36
2022-09-03T15:49:02.015Z,100170.25
2022-09-03T15:52:40.089Z,100176.45
2022-09-03T15:55:53.831Z,100186.11
2022-09-03T15:59:14.315Z,100177.70
2022-09-03T16:02:51.146Z,100187.27
2022-09-03T16:14:01.859Z,100179.96
2022-09-03T16:17:50.909Z,100179.59
2022-09-03T16:21:25.336Z,100185.20
2022-09-03T16:24:55.662Z,100178.60
2022-09-03T16:28:15.065Z,100175.70
2022-09-03T16:31:59.694Z,100182.33
2022-09-03T16:35:32.933Z,100167.88
2022-09-03T16:38:56.496Z,100169.36
2022-09-03T16:42:15.635Z,100159.73
2022-09-03T16:45:18.373Z,100159.06
2022-09-03T16:48:35.049Z,100162.81
2022-09-03T16:51:35.070Z,100157.38
2022-09-03T16:55:01.016Z,100163.85
2022-09-03T16:58:19.544Z,100160.34
2022-09-03T17:01:59.358Z,100177.97
2022-09-03T17:05:24.059Z,100168.72
2022-09-03T17:08:58.090Z,100180.14
2022-09-03T17:12:19.108Z,100180.66
2022-09-03T17:15:53.153Z,100187.36
2022-09-03T17:19:31.873Z,100198.36
2022-09-03T17:22:58.163Z,100197.22
2022-09-03T17:26:21.883Z,100204.19
2022-09-03T17:29:56.966Z,100207.13
2022-09-03T17:33:42.000Z,100208.29
2022-09-03T17:36:49.732Z,100204.34
2022-09-03T17:40:24.163Z,100184.88
2022-09-03T17:43:47.103Z,100199.38
2022-09-03T17:47:22.665Z,100219.44
2022-09-03T17:50:43.218Z,100230.37
2022-09-03T17:54:01.460Z,100238.80
2022-09-03T17:57:38.219Z,100237.69
2022-09-03T18:00:52.592Z,100239.34
2022-09-03T18:04:08.104Z,100235.42
2022-09-03T18:07:26.920Z,100236.73
2022-09-03T18:10:40.864Z,100237.31
2022-09-03T18:14:25.194Z,100231.75
2022-09-03T18:18:03.850Z,100229.94
2022-09-03T18:21:33.182Z,100247.81
2022-09-03T18:25:05.708Z,100253.75
2022-09-03T18:28:31.931Z,100273.72
2022-09-03T18:31:55.040Z,100276.03
2022-09-03T18:35:19.713Z,100299.78
2022-09-03T18:38:42.791Z,100316.20
2022-09-03T18:42:25.460Z,100323.28
2022-09-03T18:50:05.702Z,100345.14
2022-09-03T18:53:49.779Z,100355.51
2022-09-03T18:57:23.259Z,100348.98
2022-09-03T19:00:48.386Z,100350.92
2022-09-03T19:04:36.714Z,100349.35
2022-09-03T19:08:34.172Z,100343.92
2022-09-03T19:12:07.818Z,100355.28
2022-09-03T19:15:54.123Z,100359.82
2022-09-03T19:19:24.899Z,100348.14
2022-09-03T19:22:56.381Z,100346.92
2022-09-03T19:26:20.368Z,100346.57
2022-09-03T19:30:06.676Z,100341.47
2022-09-03T19:33:50.338Z,100340.19
2022-09-03T19:37:29.896Z,100313.88
2022-09-03T19:41:24.161Z,100293.38
2022-09-03T19:45:26.295Z,100261.54
2022-09-03T19:49:09.472Z,100238.44
2022-09-03T19:53:08.667Z,100218.96
2022-09-03T19:56:41.147Z,100202.55
2022-09-03T20:00:10.579Z,100217.71
2022-09-03T20:03:35.087Z,100242.52
2022-09-03T20:06:58.401Z,100257.72
2022-09-03T20:10:23.768Z,100267.14
2022-09-03T20:13:32.948Z,100273.90
2022-09-03T20:16:48.457Z,100275.49
2022-09-03T20:20:18.445Z,100273.47
2022-09-03T20:23:55.197Z,100275.56
2022-09-03T20:27:07.932Z,100260.25
2022-09-03T20:30:21.056Z,100256.83
2022-09-03T20:33:48.800Z,100274.85
2022-09-03T20:37:20.898Z,100275.53
2022-09-03T20:40:57.255Z,100257.48
2022-09-03T20:44:36.214Z,100238.86
2022-09-03T20:48:13.750Z,100260.02
2022-09-03T20:51:32.893Z,100293.78
2022-09-03T20:54:44.097Z,100297.84
2022-09-03T20:58:13.131Z,100293.30
2022-09-03T21:01:28.853Z,100298.11
2022-09-03T21:04:46.699Z,100308.08
2022-09-03T21:08:13.076Z,100324.37
2022-09-03T21:11:46.902Z,100328.16
2022-09-03T21:15:04.360Z,100317.22
2022-09-03T21:18:36.097Z,100308.62
2022-09-03T21:22:23.852Z,100308.63
2022-09-03T21:25:37.448Z,100307.70
2022-09-03T21:28:48.115Z,100316.58
2022-09-03T21:32:07.946Z,100313.44
2022-09-03T21:35:22.782Z,100320.27
2022-09-03T21:38:40.170Z,100323.66
2022-09-03T21:42:01.778Z,100320.96
2022-09-03T21:45:02.801Z,100314.87
2022-09-03T21:48:28.569Z,100318.85
2022-09-03T21:51:46.138Z,100314.58
2022-09-03T21:54:51.335Z,100317.27
2022-09-03T21:58:02.067Z,100309.94
2022-09-03T22:01:12.936Z,100317.80
2022-09-03T22:04:19.101Z,100315.84
2022-09-03T22:07:53.631Z,100320.75
2022-09-03T22:11:05.800Z,100307.06
2022-09-03T22:14:24.662Z,100306.44
2022-09-03T22:17:53.595Z,100303.88
2022-09-03T22:21:04.264Z,100304.43
2022-09-03T22:24:28.910Z,100294.73
2022-09-03T22:27:54.435Z,100295.72
2022-09-03T22:31:14.418Z,100296.73
2022-09-03T22:34:24.191Z,100286.38
2022-09-03T22:37:58.962Z,100285.27
2022-09-03T22:41:31.191Z,100286.84
2022-09-03T22:45:28.969Z,100284.00
2022-09-03T22:49:14.107Z,100286.69
2022-09-03T22:52:44.293Z,100289.91
2022-09-03T22:55:50.795Z,100278.78
2022-09-03T22:59:06.440Z,100278.88
2022-09-03T23:02:35.650Z,100281.09
2022-09-03T23:05:50.346Z,100282.17
2022-09-03T23:09:03.962Z,100274.44
2022-09-03T23:12:25.344Z,100279.52
2022-09-03T23:15:47.125Z,100269.35
2022-09-03T23:18:54.772Z,100266.61
2022-09-03T23:22:17.613Z,100275.70
2022-09-03T23:25:33.053Z,100275.09
2022-09-03T23:28:50.696Z,100275.39
2022-09-03T23:31:59.393Z,100276.67
2022-09-03T23:35:00.634Z,100272.43
2022-09-03T23:38:27.016Z,100276.77
2022-09-03T23:41:37.344Z,100279.02
2022-09-03T23:45:03.522Z,100281.45
2022-09-03T23:48:30.553Z,100282.61
2022-09-03T23:51:57.875Z,100292.48
2022-09-03T23:55:10.959Z,100289.41
2022-09-03T23:58:37.441Z,100285.78
